sensor_id;sensor_type;location;lat;lon;timestamp;temperature;humidity
7384;DHT22;3733;47.994;8.820;2022-12-18T00:02:22;-5.80;99.90
7384;DHT22;3733;47.994;8.820;2022-12-18T00:04:47;-5.80;99.90
7384;DHT22;3733;47.994;8.820;2022-12-18T00:07:13;-5.80;99.90
7384;DHT22;3733;47.994;8.820;2022-12-18T00:09:38;-5.80;99.90
7384;DHT22;3733;47.994;8.820;2022-12-18T00:12:04;-5.80;99.90
7384;DHT22;3733;47.994;8.820;2022-12-18T00:14:31;-5.90;99.90
7384;DHT22;3733;47.994;8.820;2022-12-18T00:16:56;-5.90;99.90
7384;DHT22;3733;47.994;8.820;2022-12-18T00:19:23;-5.90;99.90
7384;DHT22;3733;47.994;8.820;2022-12-18T00:21:49;-5.90;99.90
7384;DHT22;3733;47.994;8.820;2022-12-18T00:24:14;-6.00;99.90
7384;DHT22;3733;47.994;8.820;2022-12-18T00:26:40;-6.00;99.90
7384;DHT22;3733;47.994;8.820;2022-12-18T00:29:10;-6.00;99.90
7384;DHT22;3733;47.994;8.820;2022-12-18T00:31:37;-6.00;99.90
7384;DHT22;3733;47.994;8.820;2022-12-18T00:34:03;-6.00;99.90
7384;DHT22;3733;47.994;8.820;2022-12-18T00:36:32;-6.00;99.90
7384;DHT22;3733;47.994;8.820;2022-12-18T00:38:59;-6.00;99.90
7384;DHT22;3733;47.994;8.820;2022-12-18T00:41:26;-6.00;99.90
7384;DHT22;3733;47.994;8.820;2022-12-18T00:44:13;-6.00;99.90
7384;DHT22;3733;47.994;8.820;2022-12-18T00:46:39;-6.00;99.90
7384;DHT22;3733;47.994;8.820;2022-12-18T00:49:05;-6.00;99.90
7384;DHT22;3733;47.994;8.820;2022-12-18T00:51:31;-5.90;99.90
7384;DHT22;3733;47.994;8.820;2022-12-18T00:53:56;-5.90;99.90
7384;DHT22;3733;47.994;8.820;2022-12-18T00:56:23;-5.90;99.90
7384;DHT22;3733;47.994;8.820;2022-12-18T00:58:49;-5.90;99.90
7384;DHT22;3733;47.994;8.820;2022-12-18T01:01:15;-5.90;99.90
7384;DHT22;3733;47.994;8.820;2022-12-18T01:03:41;-5.90;99.90
7384;DHT22;3733;47.994;8.820;2022-12-18T01:06:08;-5.90;99.90
7384;DHT22;3733;47.994;8.820;2022-12-18T01:08:34;-5.90;99.90
7384;DHT22;3733;47.994;8.820;2022-12-18T01:11:01;-5.80;99.90
7384;DHT22;3733;47.994;8.820;2022-12-18T01:13:32;-5.80;99.90
7384;DHT22;3733;47.994;8.820;2022-12-18T01:15:57;-5.80;99.90
7384;DHT22;3733;47.994;8.820;2022-12-18T01:18:23;-5.80;99.90
7384;DHT22;3733;47.994;8.820;2022-12-18T01:20:48;-5.80;99.90
7384;DHT22;3733;47.994;8.820;2022-12-18T01:23:14;-5.80;99.90
7384;DHT22;3733;47.994;8.820;2022-12-18T01:25:39;-5.80;99.90
7384;DHT22;3733;47.994;8.820;2022-12-18T01:28:05;-5.80;99.90
7384;DHT22;3733;47.994;8.820;2022-12-18T01:30:30;-5.80;99.90
7384;DHT22;3733;47.994;8.820;2022-12-18T01:32:56;-5.80;99.90
7384;DHT22;3733;47.994;8.820;2022-12-18T01:35:22;-5.80;99.90
7384;DHT22;3733;47.994;8.820;2022-12-18T01:37:47;-5.80;99.90
7384;DHT22;3733;47.994;8.820;2022-12-18T01:40:13;-5.80;99.90
7384;DHT22;3733;47.994;8.820;2022-12-18T01:42:38;-5.80;99.90
7384;DHT22;3733;47.994;8.820;2022-12-18T01:47:38;-5.80;99.90
7384;DHT22;3733;47.994;8.820;2022-12-18T01:50:14;-5.80;99.90
7384;DHT22;3733;47.994;8.820;2022-12-18T01:52:44;-5.70;99.90
7384;DHT22;3733;47.994;8.820;2022-12-18T01:55:11;-5.70;99.90
7384;DHT22;3733;47.994;8.820;2022-12-18T01:57:38;-5.70;99.90
7384;DHT22;3733;47.994;8.820;2022-12-18T02:00:07;-5.70;99.90
7384;DHT22;3733;47.994;8.820;2022-12-18T02:02:34;-5.70;99.90
7384;DHT22;3733;47.994;8.820;2022-12-18T02:05:00;-5.70;99.90
7384;DHT22;3733;47.994;8.820;2022-12-18T02:16:13;-5.70;99.90
7384;DHT22;3733;47.994;8.820;2022-12-18T02:18:47;-5.70;99.90
7384;DHT22;3733;47.994;8.820;2022-12-18T02:23:54;-5.80;99.90
7384;DHT22;3733;47.994;8.820;2022-12-18T02:26:37;-5.80;99.90
7384;DHT22;3733;47.994;8.820;2022-12-18T02:29:25;-5.70;99.90
7384;DHT22;3733;47.994;8.820;2022-12-18T02:31:56;-5.70;99.90
7384;DHT22;3733;47.994;8.820;2022-12-18T02:34:32;-5.70;99.90
7384;DHT22;3733;47.994;8.820;2022-12-18T02:37:02;-5.70;99.90
7384;DHT22;3733;47.994;8.820;2022-12-18T02:39:29;-5.70;99.90
7384;DHT22;3733;47.994;8.820;2022-12-18T02:41:57;-5.70;99.90
7384;DHT22;3733;47.994;8.820;2022-12-18T02:44:23;-5.70;99.90
7384;DHT22;3733;47.994;8.820;2022-12-18T02:46:50;-5.70;99.90
7384;DHT22;3733;47.994;8.820;2022-12-18T02:49:28;-5.70;99.90
7384;DHT22;3733;47.994;8.820;2022-12-18T02:52:02;-5.70;99.90
7384;DHT22;3733;47.994;8.820;2022-12-18T02:54:38;-5.70;99.90
7384;DHT22;3733;47.994;8.820;2022-12-18T02:57:33;-5.60;99.90
7384;DHT22;3733;47.994;8.820;2022-12-18T03:00:05;-5.60;99.90
7384;DHT22;3733;47.994;8.820;2022-12-18T03:02:45;-5.60;99.90
7384;DHT22;3733;47.994;8.820;2022-12-18T03:05:22;-5.60;99.90
7384;DHT22;3733;47.994;8.820;2022-12-18T03:07:56;-5.60;99.90
7384;DHT22;3733;47.994;8.820;2022-12-18T03:10:27;-5.60;99.90
7384;DHT22;3733;47.994;8.820;2022-12-18T03:13:06;-5.60;99.90
7384;DHT22;3733;47.994;8.820;2022-12-18T03:15:47;-5.50;99.90
7384;DHT22;3733;47.994;8.820;2022-12-18T03:18:18;-5.50;99.90
7384;DHT22;3733;47.994;8.820;2022-12-18T03:20:47;-5.50;99.90
7384;DHT22;3733;47.994;8.820;2022-12-18T03:23:18;-5.50;99.90
7384;DHT22;3733;47.994;8.820;2022-12-18T03:25:44;-5.50;99.90
7384;DHT22;3733;47.994;8.820;2022-12-18T03:28:14;-5.40;99.90
7384;DHT22;3733;47.994;8.820;2022-12-18T03:30:43;-5.40;99.90
7384;DHT22;3733;47.994;8.820;2022-12-18T03:33:16;-5.40;99.90
7384;DHT22;3733;47.994;8.820;2022-12-18T03:35:45;-5.40;99.90
7384;DHT22;3733;47.994;8.820;2022-12-18T03:38:11;-5.40;99.90
7384;DHT22;3733;47.994;8.820;2022-12-18T03:41:04;-5.40;99.90
7384;DHT22;3733;47.994;8.820;2022-12-18T03:43:49;-5.40;99.90
7384;DHT22;3733;47.994;8.820;2022-12-18T03:46:33;-5.40;99.90
7384;DHT22;3733;47.994;8.820;2022-12-18T03:49:10;-5.40;99.90
7384;DHT22;3733;47.994;8.820;2022-12-18T03:51:45;-5.40;99.90
7384;DHT22;3733;47.994;8.820;2022-12-18T03:54:13;-5.30;99.90
7384;DHT22;3733;47.994;8.820;2022-12-18T03:56:43;-5.30;99.90
7384;DHT22;3733;47.994;8.820;2022-12-18T03:59:11;-5.20;99.90
7384;DHT22;3733;47.994;8.820;2022-12-18T04:01:40;-5.20;99.90
7384;DHT22;3733;47.994;8.820;2022-12-18T04:04:08;-5.20;99.90
7384;DHT22;3733;47.994;8.820;2022-12-18T04:06:35;-5.20;99.90
7384;DHT22;3733;47.994;8.820;2022-12-18T04:09:01;-5.20;99.90
7384;DHT22;3733;47.994;8.820;2022-12-18T04:11:27;-5.10;99.90
7384;DHT22;3733;47.994;8.820;2022-12-18T04:13:56;-5.20;99.90
7384;DHT22;3733;47.994;8.820;2022-12-18T04:16:23;-5.20;99.90
7384;DHT22;3733;47.994;8.820;2022-12-18T04:18:49;-5.20;99.90
7384;DHT22;3733;47.994;8.820;2022-12-18T04:21:15;-5.10;99.90
7384;DHT22;3733;47.994;8.820;2022-12-18T04:23:40;-5.10;99.90
7384;DHT22;3733;47.994;8.820;2022-12-18T04:26:06;-5.10;99.90
7384;DHT22;3733;47.994;8.820;2022-12-18T04:28:31;-5.10;99.90
7384;DHT22;3733;47.994;8.820;2022-12-18T04:30:57;-5.00;99.90
7384;DHT22;3733;47.994;8.820;2022-12-18T04:33:22;-5.00;99.90
7384;DHT22;3733;47.994;8.820;2022-12-18T04:35:48;-5.00;99.90
7384;DHT22;3733;47.994;8.820;2022-12-18T04:38:14;-5.00;99.90
7384;DHT22;3733;47.994;8.820;2022-12-18T04:40:40;-4.90;99.90
7384;DHT22;3733;47.994;8.820;2022-12-18T04:43:05;-4.90;99.90
7384;DHT22;3733;47.994;8.820;2022-12-18T04:45:32;-4.90;99.90
7384;DHT22;3733;47.994;8.820;2022-12-18T04:47:58;-4.90;99.90
7384;DHT22;3733;47.994;8.820;2022-12-18T04:50:24;-4.90;99.90
7384;DHT22;3733;47.994;8.820;2022-12-18T04:52:50;-4.90;99.90
7384;DHT22;3733;47.994;8.820;2022-12-18T04:55:15;-4.90;99.90
7384;DHT22;3733;47.994;8.820;2022-12-18T04:57:41;-4.90;99.90
7384;DHT22;3733;47.994;8.820;2022-12-18T05:00:07;-4.90;99.90
7384;DHT22;3733;47.994;8.820;2022-12-18T05:02:33;-4.90;99.90
7384;DHT22;3733;47.994;8.820;2022-12-18T05:04:59;-4.80;99.90
7384;DHT22;3733;47.994;8.820;2022-12-18T05:07:24;-4.80;99.90
7384;DHT22;3733;47.994;8.820;2022-12-18T05:09:50;-4.80;99.90
7384;DHT22;3733;47.994;8.820;2022-12-18T05:12:16;-4.80;99.90
7384;DHT22;3733;47.994;8.820;2022-12-18T05:14:41;-4.80;99.90
7384;DHT22;3733;47.994;8.820;2022-12-18T05:17:07;-4.80;99.90
7384;DHT22;3733;47.994;8.820;2022-12-18T05:19:32;-4.80;99.90
7384;DHT22;3733;47.994;8.820;2022-12-18T05:21:58;-4.80;99.90
7384;DHT22;3733;47.994;8.820;2022-12-18T05:24:24;-4.80;99.90
7384;DHT22;3733;47.994;8.820;2022-12-18T05:26:49;-4.80;99.90
7384;DHT22;3733;47.994;8.820;2022-12-18T05:29:15;-4.80;99.90
7384;DHT22;3733;47.994;8.820;2022-12-18T05:31:41;-4.80;99.90
7384;DHT22;3733;47.994;8.820;2022-12-18T05:34:06;-4.80;99.90
7384;DHT22;3733;47.994;8.820;2022-12-18T05:36:32;-4.80;99.90
7384;DHT22;3733;47.994;8.820;2022-12-18T05:38:58;-4.80;99.90
7384;DHT22;3733;47.994;8.820;2022-12-18T05:41:25;-4.80;99.90
7384;DHT22;3733;47.994;8.820;2022-12-18T05:43:51;-4.80;99.90
7384;DHT22;3733;47.994;8.820;2022-12-18T05:46:17;-4.80;99.90
7384;DHT22;3733;47.994;8.820;2022-12-18T05:48:44;-4.80;99.90
7384;DHT22;3733;47.994;8.820;2022-12-18T05:51:15;-4.70;99.90
7384;DHT22;3733;47.994;8.820;2022-12-18T05:53:41;-4.70;99.90
7384;DHT22;3733;47.994;8.820;2022-12-18T05:56:09;-4.70;99.90
7384;DHT22;3733;47.994;8.820;2022-12-18T05:58:35;-4.70;99.90
7384;DHT22;3733;47.994;8.820;2022-12-18T06:01:30;-4.70;99.90
7384;DHT22;3733;47.994;8.820;2022-12-18T06:03:55;-4.70;99.90
7384;DHT22;3733;47.994;8.820;2022-12-18T06:06:23;-4.70;99.90
7384;DHT22;3733;47.994;8.820;2022-12-18T06:08:50;-4.70;99.90
7384;DHT22;3733;47.994;8.820;2022-12-18T06:11:18;-4.70;99.90
7384;DHT22;3733;47.994;8.820;2022-12-18T06:13:44;-4.70;99.90
7384;DHT22;3733;47.994;8.820;2022-12-18T06:16:10;-4.70;99.90
7384;DHT22;3733;47.994;8.820;2022-12-18T06:18:35;-4.70;99.90
7384;DHT22;3733;47.994;8.820;2022-12-18T06:21:04;-4.70;99.90
7384;DHT22;3733;47.994;8.820;2022-12-18T06:23:30;-4.70;99.90
7384;DHT22;3733;47.994;8.820;2022-12-18T06:25:56;-4.60;99.90
7384;DHT22;3733;47.994;8.820;2022-12-18T06:28:21;-4.60;99.90
7384;DHT22;3733;47.994;8.820;2022-12-18T06:30:48;-4.60;99.90
7384;DHT22;3733;47.994;8.820;2022-12-18T06:33:14;-4.60;99.90
7384;DHT22;3733;47.994;8.820;2022-12-18T06:35:40;-4.60;99.90
7384;DHT22;3733;47.994;8.820;2022-12-18T06:38:07;-4.50;99.90
7384;DHT22;3733;47.994;8.820;2022-12-18T06:40:32;-4.60;99.90
7384;DHT22;3733;47.994;8.820;2022-12-18T06:42:58;-4.50;99.90
7384;DHT22;3733;47.994;8.820;2022-12-18T06:45:24;-4.50;99.90
7384;DHT22;3733;47.994;8.820;2022-12-18T06:47:49;-4.50;99.90
7384;DHT22;3733;47.994;8.820;2022-12-18T06:50:15;-4.50;99.90
7384;DHT22;3733;47.994;8.820;2022-12-18T06:52:41;-4.50;99.90
7384;DHT22;3733;47.994;8.820;2022-12-18T06:55:08;-4.50;99.90
7384;DHT22;3733;47.994;8.820;2022-12-18T06:57:34;-4.50;99.90
7384;DHT22;3733;47.994;8.820;2022-12-18T06:59:59;-4.50;99.90
7384;DHT22;3733;47.994;8.820;2022-12-18T07:02:25;-4.40;99.90
7384;DHT22;3733;47.994;8.820;2022-12-18T07:04:50;-4.50;99.90
7384;DHT22;3733;47.994;8.820;2022-12-18T07:07:16;-4.40;99.90
7384;DHT22;3733;47.994;8.820;2022-12-18T07:09:42;-4.40;99.90
7384;DHT22;3733;47.994;8.820;2022-12-18T07:12:08;-4.50;99.90
7384;DHT22;3733;47.994;8.820;2022-12-18T07:14:33;-4.40;99.90
7384;DHT22;3733;47.994;8.820;2022-12-18T07:16:59;-4.40;99.90
7384;DHT22;3733;47.994;8.820;2022-12-18T07:19:25;-4.40;99.90
7384;DHT22;3733;47.994;8.820;2022-12-18T07:21:51;-4.40;99.90
7384;DHT22;3733;47.994;8.820;2022-12-18T07:24:17;-4.40;99.90
7384;DHT22;3733;47.994;8.820;2022-12-18T07:26:45;-4.50;99.90
7384;DHT22;3733;47.994;8.820;2022-12-18T07:29:10;-4.40;99.90
7384;DHT22;3733;47.994;8.820;2022-12-18T07:31:36;-4.40;99.90
7384;DHT22;3733;47.994;8.820;2022-12-18T07:34:02;-4.40;99.90
7384;DHT22;3733;47.994;8.820;2022-12-18T07:36:27;-4.40;99.90
7384;DHT22;3733;47.994;8.820;2022-12-18T07:38:53;-4.40;99.90
7384;DHT22;3733;47.994;8.820;2022-12-18T07:41:19;-4.40;99.90
7384;DHT22;3733;47.994;8.820;2022-12-18T07:43:45;-4.30;99.90
7384;DHT22;3733;47.994;8.820;2022-12-18T07:46:11;-4.30;99.90
7384;DHT22;3733;47.994;8.820;2022-12-18T07:48:39;-4.20;99.90
7384;DHT22;3733;47.994;8.820;2022-12-18T07:51:06;-4.10;99.90
7384;DHT22;3733;47.994;8.820;2022-12-18T07:53:33;-4.10;99.90
7384;DHT22;3733;47.994;8.820;2022-12-18T07:56:04;-4.10;99.90
7384;DHT22;3733;47.994;8.820;2022-12-18T07:58:31;-4.10;99.90
7384;DHT22;3733;47.994;8.820;2022-12-18T08:03:29;-4.00;99.90
7384;DHT22;3733;47.994;8.820;2022-12-18T08:05:59;-4.00;99.90
7384;DHT22;3733;47.994;8.820;2022-12-18T08:08:25;-4.00;99.90
7384;DHT22;3733;47.994;8.820;2022-12-18T08:10:50;-4.00;99.90
7384;DHT22;3733;47.994;8.820;2022-12-18T08:13:16;-4.00;99.90
7384;DHT22;3733;47.994;8.820;2022-12-18T08:15:42;-4.00;99.90
7384;DHT22;3733;47.994;8.820;2022-12-18T08:18:07;-4.10;99.90
7384;DHT22;3733;47.994;8.820;2022-12-18T08:20:33;-4.10;99.90
7384;DHT22;3733;47.994;8.820;2022-12-18T08:22:58;-4.00;99.90
7384;DHT22;3733;47.994;8.820;2022-12-18T08:25:24;-4.00;99.90
7384;DHT22;3733;47.994;8.820;2022-12-18T08:27:49;-4.00;99.90
7384;DHT22;3733;47.994;8.820;2022-12-18T08:30:15;-4.00;99.90
7384;DHT22;3733;47.994;8.820;2022-12-18T08:32:41;-4.00;99.90
7384;DHT22;3733;47.994;8.820;2022-12-18T08:35:06;-4.00;99.90
7384;DHT22;3733;47.994;8.820;2022-12-18T08:37:33;-3.90;99.90
7384;DHT22;3733;47.994;8.820;2022-12-18T08:39:59;-3.90;99.90
7384;DHT22;3733;47.994;8.820;2022-12-18T08:42:25;-3.90;99.90
7384;DHT22;3733;47.994;8.820;2022-12-18T08:45:10;-3.90;99.90
7384;DHT22;3733;47.994;8.820;2022-12-18T08:47:35;-3.80;99.90
7384;DHT22;3733;47.994;8.820;2022-12-18T08:50:01;-3.80;99.90
7384;DHT22;3733;47.994;8.820;2022-12-18T08:52:27;-3.80;99.90
7384;DHT22;3733;47.994;8.820;2022-12-18T08:54:53;-3.70;99.90
7384;DHT22;3733;47.994;8.820;2022-12-18T08:57:19;-3.70;99.90
7384;DHT22;3733;47.994;8.820;2022-12-18T08:59:44;-3.60;99.90
7384;DHT22;3733;47.994;8.820;2022-12-18T09:02:11;-3.60;99.90
7384;DHT22;3733;47.994;8.820;2022-12-18T09:04:36;-3.60;99.90
7384;DHT22;3733;47.994;8.820;2022-12-18T09:07:02;-3.60;99.90
7384;DHT22;3733;47.994;8.820;2022-12-18T09:09:28;-3.50;99.90
7384;DHT22;3733;47.994;8.820;2022-12-18T09:11:54;-3.50;99.90
7384;DHT22;3733;47.994;8.820;2022-12-18T09:14:19;-3.50;99.90
7384;DHT22;3733;47.994;8.820;2022-12-18T09:16:45;-3.50;99.90
7384;DHT22;3733;47.994;8.820;2022-12-18T09:19:11;-3.40;99.90
7384;DHT22;3733;47.994;8.820;2022-12-18T09:21:36;-3.40;99.90
7384;DHT22;3733;47.994;8.820;2022-12-18T09:24:03;-3.40;99.90
7384;DHT22;3733;47.994;8.820;2022-12-18T09:26:29;-3.30;99.90
7384;DHT22;3733;47.994;8.820;2022-12-18T09:28:55;-3.30;99.90
7384;DHT22;3733;47.994;8.820;2022-12-18T09:31:23;-3.30;99.90
7384;DHT22;3733;47.994;8.820;2022-12-18T09:33:49;-3.30;99.90
7384;DHT22;3733;47.994;8.820;2022-12-18T09:36:16;-3.30;99.90
7384;DHT22;3733;47.994;8.820;2022-12-18T09:38:43;-3.30;99.90
7384;DHT22;3733;47.994;8.820;2022-12-18T09:41:44;-3.20;99.90
7384;DHT22;3733;47.994;8.820;2022-12-18T09:46:44;-3.20;99.90
7384;DHT22;3733;47.994;8.820;2022-12-18T09:49:17;-3.10;99.90
7384;DHT22;3733;47.994;8.820;2022-12-18T09:54:33;-3.10;99.90
7384;DHT22;3733;47.994;8.820;2022-12-18T09:56:59;-3.10;99.90
7384;DHT22;3733;47.994;8.820;2022-12-18T09:59:35;-3.10;99.90
7384;DHT22;3733;47.994;8.820;2022-12-18T10:02:17;-3.00;99.90
7384;DHT22;3733;47.994;8.820;2022-12-18T10:04:43;-3.00;99.90
7384;DHT22;3733;47.994;8.820;2022-12-18T10:07:24;-3.00;99.90
7384;DHT22;3733;47.994;8.820;2022-12-18T10:15:18;-2.90;99.90
7384;DHT22;3733;47.994;8.820;2022-12-18T10:20:57;-2.90;99.90
7384;DHT22;3733;47.994;8.820;2022-12-18T10:23:32;-2.90;99.90
7384;DHT22;3733;47.994;8.820;2022-12-18T10:26:07;-2.90;99.90
7384;DHT22;3733;47.994;8.820;2022-12-18T10:28:36;-2.80;99.90
7384;DHT22;3733;47.994;8.820;2022-12-18T10:31:02;-2.80;99.90
7384;DHT22;3733;47.994;8.820;2022-12-18T10:33:31;-2.80;99.90
7384;DHT22;3733;47.994;8.820;2022-12-18T10:35:58;-2.70;99.90
7384;DHT22;3733;47.994;8.820;2022-12-18T10:38:26;-2.70;99.90
7384;DHT22;3733;47.994;8.820;2022-12-18T10:43:25;-2.50;99.90
7384;DHT22;3733;47.994;8.820;2022-12-18T10:51:29;-2.50;99.90
7384;DHT22;3733;47.994;8.820;2022-12-18T10:54:12;-2.60;99.90
7384;DHT22;3733;47.994;8.820;2022-12-18T10:56:39;-2.60;99.90
7384;DHT22;3733;47.994;8.820;2022-12-18T10:59:07;-2.50;99.90
7384;DHT22;3733;47.994;8.820;2022-12-18T11:04:28;-2.50;99.90
7384;DHT22;3733;47.994;8.820;2022-12-18T11:09:24;-2.40;99.90
7384;DHT22;3733;47.994;8.820;2022-12-18T11:11:58;-2.40;99.90
7384;DHT22;3733;47.994;8.820;2022-12-18T11:14:28;-2.30;99.90
7384;DHT22;3733;47.994;8.820;2022-12-18T11:16:55;-2.30;99.90
7384;DHT22;3733;47.994;8.820;2022-12-18T11:19:34;-2.30;99.90
7384;DHT22;3733;47.994;8.820;2022-12-18T11:22:01;-2.30;99.90
7384;DHT22;3733;47.994;8.820;2022-12-18T11:24:32;-2.20;99.90
7384;DHT22;3733;47.994;8.820;2022-12-18T11:27:04;-2.20;99.90
7384;DHT22;3733;47.994;8.820;2022-12-18T11:29:39;-2.30;99.90
7384;DHT22;3733;47.994;8.820;2022-12-18T11:32:32;-2.30;99.90
7384;DHT22;3733;47.994;8.820;2022-12-18T11:35:16;-2.30;99.90
7384;DHT22;3733;47.994;8.820;2022-12-18T11:37:47;-2.30;99.90
7384;DHT22;3733;47.994;8.820;2022-12-18T11:40:20;-2.30;99.90
7384;DHT22;3733;47.994;8.820;2022-12-18T11:43:20;-2.30;99.90
7384;DHT22;3733;47.994;8.820;2022-12-18T11:45:54;-2.30;99.90
7384;DHT22;3733;47.994;8.820;2022-12-18T11:48:27;-2.30;99.90
7384;DHT22;3733;47.994;8.820;2022-12-18T11:50:57;-2.30;99.90
7384;DHT22;3733;47.994;8.820;2022-12-18T11:53:26;-2.30;99.90
7384;DHT22;3733;47.994;8.820;2022-12-18T11:56:28;-2.30;99.90
7384;DHT22;3733;47.994;8.820;2022-12-18T12:07:26;-2.10;99.90
7384;DHT22;3733;47.994;8.820;2022-12-18T12:12:52;-2.20;99.90
7384;DHT22;3733;47.994;8.820;2022-12-18T12:18:18;-2.10;99.90
7384;DHT22;3733;47.994;8.820;2022-12-18T12:20:57;-2.10;99.90
7384;DHT22;3733;47.994;8.820;2022-12-18T12:37:25;-2.00;99.90
7384;DHT22;3733;47.994;8.820;2022-12-18T12:39:56;-2.00;99.90
7384;DHT22;3733;47.994;8.820;2022-12-18T12:45:16;-2.10;99.90
7384;DHT22;3733;47.994;8.820;2022-12-18T12:47:45;-2.10;99.90
7384;DHT22;3733;47.994;8.820;2022-12-18T12:50:16;-2.10;99.90
7384;DHT22;3733;47.994;8.820;2022-12-18T12:52:52;-2.10;99.90
7384;DHT22;3733;47.994;8.820;2022-12-18T12:55:38;-2.10;99.90
7384;DHT22;3733;47.994;8.820;2022-12-18T12:58:49;-2.00;99.90
7384;DHT22;3733;47.994;8.820;2022-12-18T13:02:02;-2.10;99.90
7384;DHT22;3733;47.994;8.820;2022-12-18T13:04:15;-2.10;99.90
7384;DHT22;3733;47.994;8.820;2022-12-18T13:06:48;-2.10;99.90
7384;DHT22;3733;47.994;8.820;2022-12-18T13:09:15;-2.10;99.90
7384;DHT22;3733;47.994;8.820;2022-12-18T13:11:45;-2.10;99.90
7384;DHT22;3733;47.994;8.820;2022-12-18T13:14:37;-2.20;99.90
7384;DHT22;3733;47.994;8.820;2022-12-18T13:17:24;-2.10;99.90
7384;DHT22;3733;47.994;8.820;2022-12-18T13:22:37;-2.20;99.90
7384;DHT22;3733;47.994;8.820;2022-12-18T13:25:33;-2.10;99.90
7384;DHT22;3733;47.994;8.820;2022-12-18T13:36:09;-2.10;99.90
7384;DHT22;3733;47.994;8.820;2022-12-18T13:38:38;-2.10;99.90
7384;DHT22;3733;47.994;8.820;2022-12-18T13:41:25;-2.10;99.90
7384;DHT22;3733;47.994;8.820;2022-12-18T13:43:55;-2.10;99.90
7384;DHT22;3733;47.994;8.820;2022-12-18T13:46:51;-2.10;99.90
7384;DHT22;3733;47.994;8.820;2022-12-18T13:49:40;-2.00;99.90
7384;DHT22;3733;47.994;8.820;2022-12-18T13:52:25;-2.10;99.90
7384;DHT22;3733;47.994;8.820;2022-12-18T13:54:55;-2.10;99.90
7384;DHT22;3733;47.994;8.820;2022-12-18T13:57:33;-2.10;99.90
7384;DHT22;3733;47.994;8.820;2022-12-18T14:00:23;-2.10;99.90
7384;DHT22;3733;47.994;8.820;2022-12-18T14:02:50;-2.10;99.90
7384;DHT22;3733;47.994;8.820;2022-12-18T14:05:28;-2.10;99.90
7384;DHT22;3733;47.994;8.820;2022-12-18T14:07:55;-2.20;99.90
7384;DHT22;3733;47.994;8.820;2022-12-18T14:10:23;-2.20;99.90
7384;DHT22;3733;47.994;8.820;2022-12-18T14:12:50;-2.20;99.90
7384;DHT22;3733;47.994;8.820;2022-12-18T14:15:28;-2.20;99.90
7384;DHT22;3733;47.994;8.820;2022-12-18T14:17:59;-2.30;99.90
7384;DHT22;3733;47.994;8.820;2022-12-18T14:20:27;-2.30;99.90
7384;DHT22;3733;47.994;8.820;2022-12-18T14:22:54;-2.30;99.90
7384;DHT22;3733;47.994;8.820;2022-12-18T14:25:23;-2.40;99.90
7384;DHT22;3733;47.994;8.820;2022-12-18T14:27:53;-2.40;99.90
7384;DHT22;3733;47.994;8.820;2022-12-18T14:30:30;-2.50;99.90
7384;DHT22;3733;47.994;8.820;2022-12-18T14:33:09;-2.50;99.90
7384;DHT22;3733;47.994;8.820;2022-12-18T14:35:38;-2.50;99.90
7384;DHT22;3733;47.994;8.820;2022-12-18T14:40:42;-2.60;99.90
7384;DHT22;3733;47.994;8.820;2022-12-18T14:43:11;-2.60;99.90
7384;DHT22;3733;47.994;8.820;2022-12-18T14:45:44;-2.60;99.90
7384;DHT22;3733;47.994;8.820;2022-12-18T14:50:37;-2.60;99.90
7384;DHT22;3733;47.994;8.820;2022-12-18T14:53:03;-2.60;99.90
7384;DHT22;3733;47.994;8.820;2022-12-18T14:55:29;-2.60;99.90
7384;DHT22;3733;47.994;8.820;2022-12-18T14:57:56;-2.60;99.90
7384;DHT22;3733;47.994;8.820;2022-12-18T15:00:24;-2.70;99.90
7384;DHT22;3733;47.994;8.820;2022-12-18T15:02:53;-2.70;99.90
7384;DHT22;3733;47.994;8.820;2022-12-18T15:05:20;-2.70;99.90
7384;DHT22;3733;47.994;8.820;2022-12-18T15:07:54;-2.70;99.90
7384;DHT22;3733;47.994;8.820;2022-12-18T15:10:29;-2.70;99.90
7384;DHT22;3733;47.994;8.820;2022-12-18T15:20:57;-2.70;99.90
7384;DHT22;3733;47.994;8.820;2022-12-18T15:26:13;-2.80;99.90
7384;DHT22;3733;47.994;8.820;2022-12-18T15:28:49;-2.80;99.90
7384;DHT22;3733;47.994;8.820;2022-12-18T15:33:46;-2.80;99.90
7384;DHT22;3733;47.994;8.820;2022-12-18T15:36:29;-2.80;99.90
7384;DHT22;3733;47.994;8.820;2022-12-18T15:38:56;-2.80;99.90
7384;DHT22;3733;47.994;8.820;2022-12-18T15:41:23;-2.90;99.90
7384;DHT22;3733;47.994;8.820;2022-12-18T15:43:51;-2.90;99.90
7384;DHT22;3733;47.994;8.820;2022-12-18T15:46:19;-3.00;99.90
7384;DHT22;3733;47.994;8.820;2022-12-18T15:48:51;-3.00;99.90
7384;DHT22;3733;47.994;8.820;2022-12-18T15:51:28;-3.00;99.90
7384;DHT22;3733;47.994;8.820;2022-12-18T15:53:56;-3.00;99.90
7384;DHT22;3733;47.994;8.820;2022-12-18T15:56:23;-3.00;99.90
7384;DHT22;3733;47.994;8.820;2022-12-18T15:59:19;-2.90;99.90
7384;DHT22;3733;47.994;8.820;2022-12-18T16:01:49;-3.00;99.90
7384;DHT22;3733;47.994;8.820;2022-12-18T16:04:18;-3.00;99.90
7384;DHT22;3733;47.994;8.820;2022-12-18T16:06:46;-3.00;99.90
7384;DHT22;3733;47.994;8.820;2022-12-18T16:09:12;-3.00;99.90
7384;DHT22;3733;47.994;8.820;2022-12-18T16:11:41;-3.00;99.90
7384;DHT22;3733;47.994;8.820;2022-12-18T16:16:42;-3.00;99.90
7384;DHT22;3733;47.994;8.820;2022-12-18T16:19:08;-3.00;99.90
7384;DHT22;3733;47.994;8.820;2022-12-18T16:21:33;-3.00;99.90
7384;DHT22;3733;47.994;8.820;2022-12-18T16:23:59;-3.00;99.90
7384;DHT22;3733;47.994;8.820;2022-12-18T16:26:25;-3.00;99.90
7384;DHT22;3733;47.994;8.820;2022-12-18T16:28:50;-3.00;99.90
7384;DHT22;3733;47.994;8.820;2022-12-18T16:31:16;-3.10;99.90
7384;DHT22;3733;47.994;8.820;2022-12-18T16:33:42;-3.10;99.90
7384;DHT22;3733;47.994;8.820;2022-12-18T16:36:07;-3.10;99.90
7384;DHT22;3733;47.994;8.820;2022-12-18T16:38:33;-3.20;99.90
7384;DHT22;3733;47.994;8.820;2022-12-18T16:40:59;-3.20;99.90
7384;DHT22;3733;47.994;8.820;2022-12-18T16:43:43;-3.20;99.90
7384;DHT22;3733;47.994;8.820;2022-12-18T16:46:08;-3.10;99.90
7384;DHT22;3733;47.994;8.820;2022-12-18T16:48:34;-3.10;99.90
7384;DHT22;3733;47.994;8.820;2022-12-18T16:51:04;-3.10;99.90
7384;DHT22;3733;47.994;8.820;2022-12-18T16:53:31;-3.10;99.90
7384;DHT22;3733;47.994;8.820;2022-12-18T16:55:57;-3.10;99.90
7384;DHT22;3733;47.994;8.820;2022-12-18T16:58:23;-3.10;99.90
7384;DHT22;3733;47.994;8.820;2022-12-18T17:00:49;-3.10;99.90
7384;DHT22;3733;47.994;8.820;2022-12-18T17:03:14;-3.00;99.90
7384;DHT22;3733;47.994;8.820;2022-12-18T17:05:40;-3.00;99.90
7384;DHT22;3733;47.994;8.820;2022-12-18T17:08:05;-3.00;99.90
7384;DHT22;3733;47.994;8.820;2022-12-18T17:10:34;-3.00;99.90
7384;DHT22;3733;47.994;8.820;2022-12-18T17:13:00;-3.00;99.90
7384;DHT22;3733;47.994;8.820;2022-12-18T17:15:26;-3.00;99.90
7384;DHT22;3733;47.994;8.820;2022-12-18T17:17:51;-3.00;99.90
7384;DHT22;3733;47.994;8.820;2022-12-18T17:20:17;-3.00;99.90
7384;DHT22;3733;47.994;8.820;2022-12-18T17:22:42;-3.00;99.90
7384;DHT22;3733;47.994;8.820;2022-12-18T17:25:08;-3.00;99.90
7384;DHT22;3733;47.994;8.820;2022-12-18T17:27:34;-3.00;99.90
7384;DHT22;3733;47.994;8.820;2022-12-18T17:29:59;-3.00;99.90
7384;DHT22;3733;47.994;8.820;2022-12-18T17:32:25;-3.00;99.90
7384;DHT22;3733;47.994;8.820;2022-12-18T17:34:50;-3.00;99.90
7384;DHT22;3733;47.994;8.820;2022-12-18T17:37:16;-3.00;99.90
7384;DHT22;3733;47.994;8.820;2022-12-18T17:39:42;-3.00;99.90
7384;DHT22;3733;47.994;8.820;2022-12-18T17:42:07;-3.00;99.90
7384;DHT22;3733;47.994;8.820;2022-12-18T17:44:35;-3.00;99.90
7384;DHT22;3733;47.994;8.820;2022-12-18T17:47:00;-3.00;99.90
7384;DHT22;3733;47.994;8.820;2022-12-18T17:49:26;-3.00;99.90
7384;DHT22;3733;47.994;8.820;2022-12-18T17:51:52;-3.10;99.90
7384;DHT22;3733;47.994;8.820;2022-12-18T17:54:18;-3.10;99.90
7384;DHT22;3733;47.994;8.820;2022-12-18T17:56:44;-3.10;99.90
7384;DHT22;3733;47.994;8.820;2022-12-18T17:59:10;-3.10;99.90
7384;DHT22;3733;47.994;8.820;2022-12-18T18:01:36;-3.10;99.90
7384;DHT22;3733;47.994;8.820;2022-12-18T18:04:02;-3.10;99.90